createdAt,value
2022-08-16T00:05:48.139Z,22
2022-08-16T00:15:51.336Z,22
2022-08-16T00:26:34.089Z,21.9
2022-08-16T00:28:45.243Z,21.9
2022-08-16T00:36:02.935Z,21.7
2022-08-16T00:46:22.545Z,21.7
2022-08-16T00:56:06.743Z,21.5
2022-08-16T01:06:32.938Z,21.3
2022-08-16T01:16:11.614Z,21.2
2022-08-16T01:26:33.492Z,21.1
2022-08-16T01:36:15.804Z,21.1
2022-08-16T01:46:30.386Z,21
2022-08-16T02:06:26.089Z,21
2022-08-16T02:16:24.021Z,21
2022-08-16T02:26:25.828Z,20.8
2022-08-16T02:36:42.555Z,20.9
2022-08-16T02:46:30.084Z,20.9
2022-08-16T02:56:32.186Z,20.8
2022-08-16T03:06:36.525Z,20.8
2022-08-16T03:16:38.572Z,20.6
2022-08-16T03:26:38.046Z,20.5
2022-08-16T03:36:39.845Z,20.4
2022-08-16T03:46:44.680Z,20.3
2022-08-16T03:56:57.435Z,20.2
2022-08-16T04:06:47.073Z,20.1
2022-08-16T04:16:49.081Z,20
2022-08-16T04:26:51.345Z,20
2022-08-16T04:36:53.515Z,19.7
2022-08-16T04:47:00.477Z,19.7
2022-08-16T04:56:57.424Z,19.7
2022-08-16T05:06:59.325Z,19.7
2022-08-16T05:27:11.245Z,19.9
2022-08-16T05:37:07.082Z,20
2022-08-16T05:47:09.101Z,20.2
2022-08-16T05:57:13.399Z,20.3
2022-08-16T06:07:25.298Z,20.5
2022-08-16T06:17:15.714Z,20.7
2022-08-16T06:27:17.475Z,21
2022-08-16T06:37:19.306Z,21.3
2022-08-16T06:57:23.512Z,21.5
2022-08-16T07:07:25.197Z,21.8
2022-08-16T07:17:27.139Z,21.9
2022-08-16T07:27:32.001Z,22.1
2022-08-16T07:47:33.812Z,23
2022-08-16T07:57:38.158Z,23.7
2022-08-16T08:07:38.837Z,24.1
2022-08-16T08:17:42.433Z,24.1
2022-08-16T08:27:44.161Z,24.6
2022-08-16T08:37:54.954Z,24.9
2022-08-16T08:57:49.714Z,25.4
2022-08-16T09:07:54.913Z,25.9
2022-08-16T09:17:54.862Z,25.7
2022-08-16T09:28:02.242Z,26
2022-08-16T09:38:00.367Z,26.1
2022-08-16T09:48:00.562Z,26.5
2022-08-16T09:58:03.051Z,26.8
2022-08-16T10:18:41.375Z,27.6
2022-08-16T10:38:10.923Z,28.4
2022-08-16T10:48:23.887Z,28.1
2022-08-16T10:58:16.817Z,28.1
2022-08-16T11:08:17.915Z,28.2
2022-08-16T11:18:49.085Z,28.5
2022-08-16T11:29:12.453Z,28.7
2022-08-16T11:38:47.748Z,28.6
2022-08-16T11:48:26.193Z,29
2022-08-16T11:58:28.331Z,28.8
2022-08-16T12:08:30.695Z,28.8
2022-08-16T12:28:37.103Z,30
2022-08-16T12:38:38.378Z,29.5
2022-08-16T12:48:38.805Z,29.4
2022-08-16T12:58:47.671Z,29
2022-08-16T13:08:43.323Z,29.7
2022-08-16T13:18:45.039Z,29.8
2022-08-16T13:28:47.833Z,29.1
2022-08-16T13:38:49.479Z,29
2022-08-16T13:48:51.871Z,29.3
2022-08-16T13:58:54.646Z,29.3
2022-08-16T14:08:59.448Z,29.3
2022-08-16T14:18:57.739Z,29.6
2022-08-16T14:29:03.325Z,29.3
2022-08-16T14:39:02.268Z,29.2
2022-08-16T14:49:04.442Z,28.9
2022-08-16T14:59:06.623Z,29.2
2022-08-16T15:09:08.521Z,29.6
2022-08-16T15:19:10.243Z,29.5
2022-08-16T15:29:12.296Z,29.8
2022-08-16T15:39:29.364Z,29.4
2022-08-16T15:49:17.002Z,29.4
2022-08-16T16:19:23.059Z,29.1
2022-08-16T16:39:27.717Z,28.8
2022-08-16T16:59:31.651Z,28.6
2022-08-16T17:19:40.407Z,28.7
2022-08-16T17:39:45.328Z,29
2022-08-16T17:49:41.785Z,29.2
2022-08-16T18:09:46.184Z,28.7
2022-08-16T18:19:48.052Z,28.4
2022-08-16T18:29:51.249Z,28
2022-08-16T18:39:52.636Z,27.6
2022-08-16T18:49:54.913Z,27.2
2022-08-16T19:09:58.749Z,26.2
2022-08-16T19:20:00.847Z,26
2022-08-16T19:30:03.432Z,25.6
2022-08-16T19:40:05.573Z,25.6
2022-08-16T19:50:07.479Z,25.5
2022-08-16T20:00:11.326Z,25.5
2022-08-16T20:30:15.843Z,24.5
2022-08-16T20:40:18.310Z,24.2
2022-08-16T20:50:19.729Z,24.2
2022-08-16T21:00:21.555Z,24.1
2022-08-16T21:10:23.733Z,23.8
2022-08-16T21:30:30.519Z,23.6
2022-08-16T21:40:31.056Z,23.3
2022-08-16T22:00:35.424Z,23
2022-08-16T22:11:05.386Z,22.7
2022-08-16T22:20:39.357Z,22.5
2022-08-16T22:30:42.042Z,22.3
2022-08-16T22:40:44.327Z,22.1
2022-08-16T22:50:46.543Z,22.1
2022-08-16T23:10:50.914Z,21.9
2022-08-16T23:20:53.517Z,22
2022-08-16T23:30:55.220Z,22.1
2022-08-16T23:40:57.678Z,22.1
2022-08-16T23:50:59.379Z,22.1
